createdAt,value
2023-02-11T00:02:01.621Z,60.18
2023-02-11T00:04:30.021Z,60.48
2023-02-11T00:06:58.533Z,60.48
2023-02-11T00:09:27.036Z,60.57
2023-02-11T00:11:55.356Z,60.63
2023-02-11T00:14:23.774Z,60.08
2023-02-11T00:16:53.623Z,60.61
2023-02-11T00:19:22.051Z,60.82
2023-02-11T00:21:50.412Z,60.92
2023-02-11T00:24:18.745Z,60.83
2023-02-11T00:26:47.106Z,60.22
2023-02-11T00:29:15.438Z,60.73
2023-02-11T00:31:43.847Z,60.86
2023-02-11T00:34:13.803Z,60.88
2023-02-11T00:36:42.623Z,61.16
2023-02-11T00:39:11.094Z,61.03
2023-02-11T00:41:39.458Z,61.03
2023-02-11T00:44:08.446Z,60.84
2023-02-11T00:46:36.919Z,61.00
2023-02-11T00:49:05.570Z,60.99
2023-02-11T00:51:35.598Z,61.29
2023-02-11T00:54:03.992Z,60.84
2023-02-11T00:56:32.812Z,60.72
2023-02-11T00:59:01.236Z,60.81
2023-02-11T01:01:29.668Z,60.30
2023-02-11T01:03:58.090Z,60.02
2023-02-11T01:06:26.605Z,59.83
2023-02-11T01:08:56.384Z,59.94
2023-02-11T01:11:24.978Z,59.84
2023-02-11T01:13:53.497Z,59.79
2023-02-11T01:16:23.334Z,60.15
2023-02-11T01:18:51.743Z,60.12
2023-02-11T01:21:20.298Z,59.86
2023-02-11T01:23:48.701Z,59.91
2023-02-11T01:26:18.613Z,60.10
2023-02-11T01:28:47.163Z,60.43
2023-02-11T01:31:16.157Z,60.54
2023-02-11T01:33:44.827Z,60.72
2023-02-11T01:36:13.851Z,60.00
2023-02-11T01:38:43.827Z,59.74
2023-02-11T01:41:15.221Z,60.19
2023-02-11T01:43:47.338Z,60.06
2023-02-11T01:46:33.800Z,60.54
2023-02-11T01:49:07.402Z,60.46
2023-02-11T01:51:40.666Z,60.56
2023-02-11T01:54:29.752Z,60.80
2023-02-11T01:57:18.311Z,61.21
2023-02-11T01:59:55.342Z,60.93
2023-02-11T02:02:28.590Z,61.08
2023-02-11T02:05:02.225Z,61.22
2023-02-11T02:07:34.734Z,61.62
2023-02-11T02:10:08.278Z,61.06
2023-02-11T02:12:36.684Z,61.32
2023-02-11T02:15:27.803Z,61.00
2023-02-11T02:18:01.927Z,61.23
2023-02-11T02:21:04.216Z,60.80
2023-02-11T02:23:59.232Z,60.36
2023-02-11T02:26:55.687Z,60.44
2023-02-11T02:29:57.893Z,60.12
2023-02-11T02:32:48.674Z,60.34
2023-02-11T02:35:28.120Z,60.68
2023-02-11T02:38:03.296Z,60.55
2023-02-11T02:40:36.949Z,60.72
2023-02-11T02:43:06.137Z,61.38
2023-02-11T02:45:34.842Z,61.41
2023-02-11T02:48:04.829Z,61.07
2023-02-11T02:50:37.772Z,60.98
2023-02-11T02:53:20.183Z,60.93
2023-02-11T02:56:01.764Z,60.91
2023-02-11T02:59:09.454Z,60.52
2023-02-11T03:01:47.134Z,60.64
2023-02-11T03:04:25.332Z,60.19
2023-02-11T03:06:59.335Z,60.49
2023-02-11T03:09:33.109Z,60.41
2023-02-11T03:12:04.046Z,60.16
2023-02-11T03:14:33.813Z,60.12
2023-02-11T03:17:06.176Z,60.07
2023-02-11T03:19:39.842Z,59.77
2023-02-11T03:22:10.358Z,59.44
2023-02-11T03:24:40.919Z,60.04
2023-02-11T03:27:17.811Z,59.38
2023-02-11T03:29:54.725Z,59.26
2023-02-11T03:32:28.677Z,59.40
2023-02-11T03:35:02.396Z,58.79
2023-02-11T03:37:33.845Z,58.77
2023-02-11T03:40:04.803Z,59.20
2023-02-11T03:42:37.382Z,58.75
2023-02-11T03:45:09.916Z,58.80
2023-02-11T03:47:43.171Z,58.54
2023-02-11T03:50:15.953Z,58.00
2023-02-11T03:52:45.449Z,58.27
2023-02-11T03:55:20.844Z,58.43
2023-02-11T03:57:49.691Z,58.16
2023-02-11T04:00:18.179Z,57.19
2023-02-11T04:02:46.690Z,57.24
2023-02-11T04:05:17.654Z,56.42
2023-02-11T04:07:46.030Z,55.51
2023-02-11T04:10:14.574Z,56.09
2023-02-11T04:12:43.473Z,56.39
2023-02-11T04:15:11.880Z,56.64
2023-02-11T04:17:41.258Z,57.13
2023-02-11T04:20:10.534Z,57.22
2023-02-11T04:22:40.637Z,56.85
2023-02-11T04:25:10.716Z,57.20
2023-02-11T04:27:39.450Z,57.34
2023-02-11T04:30:09.157Z,57.35
2023-02-11T04:32:37.590Z,57.33
2023-02-11T04:35:06.786Z,57.11
2023-02-11T04:37:35.836Z,57.19
2023-02-11T04:40:06.524Z,56.67
2023-02-11T04:42:34.871Z,56.95
2023-02-11T04:45:03.228Z,56.70
2023-02-11T04:47:31.704Z,57.01
2023-02-11T04:50:00.038Z,57.21
2023-02-11T04:52:28.428Z,57.59
2023-02-11T04:54:56.817Z,57.84
2023-02-11T04:57:26.562Z,58.18
2023-02-11T04:59:54.960Z,58.33
2023-02-11T05:02:23.391Z,58.36
2023-02-11T05:04:51.826Z,58.47
2023-02-11T05:07:20.160Z,58.44
2023-02-11T05:09:48.503Z,58.35
2023-02-11T05:12:17.167Z,58.01
2023-02-11T05:14:46.912Z,58.33
2023-02-11T05:17:15.362Z,58.51
2023-02-11T05:19:44.097Z,58.75
2023-02-11T05:22:12.534Z,58.55
2023-02-11T05:24:41.039Z,58.50
2023-02-11T05:27:09.366Z,58.32
2023-02-11T05:29:38.114Z,58.16
2023-02-11T05:32:09.329Z,57.91
2023-02-11T05:34:38.056Z,57.90
2023-02-11T05:37:06.667Z,58.00
2023-02-11T05:39:35.095Z,57.74
2023-02-11T05:42:03.514Z,57.90
2023-02-11T05:44:31.902Z,57.64
2023-02-11T05:47:00.328Z,58.15
2023-02-11T05:49:30.068Z,58.08
2023-02-11T05:51:58.641Z,58.14
2023-02-11T05:54:26.940Z,58.20
2023-02-11T05:56:55.320Z,58.32
2023-02-11T05:59:23.587Z,58.61
2023-02-11T06:01:51.987Z,58.87
2023-02-11T06:04:20.318Z,58.64
2023-02-11T06:06:50.586Z,58.83
2023-02-11T06:09:18.972Z,59.36
2023-02-11T06:11:47.628Z,59.22
2023-02-11T06:14:16.020Z,59.34
2023-02-11T06:16:44.407Z,59.52
2023-02-11T06:19:12.784Z,59.40
2023-02-11T06:21:44.238Z,59.64
2023-02-11T06:24:14.439Z,59.65
2023-02-11T06:26:42.974Z,59.45
2023-02-11T06:29:11.285Z,59.46
2023-02-11T06:31:40.503Z,59.74
2023-02-11T06:34:09.484Z,59.61
2023-02-11T06:36:39.819Z,59.77
2023-02-11T06:39:08.832Z,59.66
2023-02-11T06:41:38.666Z,60.11
2023-02-11T06:44:07.498Z,59.88
2023-02-11T06:46:37.290Z,59.95
2023-02-11T06:49:06.827Z,60.24
2023-02-11T06:51:35.550Z,60.26
2023-02-11T06:54:03.815Z,60.43
2023-02-11T06:56:32.223Z,60.31
2023-02-11T06:59:02.606Z,60.32
2023-02-11T07:01:31.157Z,60.29
2023-02-11T07:03:59.614Z,60.24
2023-02-11T07:06:29.114Z,60.03
2023-02-11T07:08:57.626Z,60.49
2023-02-11T07:11:28.350Z,60.44
2023-02-11T07:14:00.831Z,60.48
2023-02-11T07:16:30.997Z,60.56
2023-02-11T07:18:59.650Z,60.63
2023-02-11T07:21:28.283Z,60.51
2023-02-11T07:23:56.715Z,60.21
2023-02-11T07:26:26.436Z,60.18
2023-02-11T07:28:55.060Z,60.53
2023-02-11T07:31:25.526Z,60.44
2023-02-11T07:33:56.385Z,60.45
2023-02-11T07:36:25.035Z,60.18
2023-02-11T07:38:53.545Z,60.48
2023-02-11T07:41:24.582Z,60.53
2023-02-11T07:43:52.928Z,60.78
2023-02-11T07:46:23.251Z,60.49
2023-02-11T07:48:52.090Z,60.38
2023-02-11T07:51:24.477Z,60.53
2023-02-11T07:53:53.605Z,60.57
2023-02-11T07:56:23.999Z,60.62
2023-02-11T07:58:52.693Z,60.54
2023-02-11T08:01:25.445Z,60.38
2023-02-11T08:03:54.427Z,60.22
2023-02-11T08:06:25.641Z,60.53
2023-02-11T08:08:54.528Z,60.14
2023-02-11T08:11:24.848Z,60.45
2023-02-11T08:13:54.257Z,60.47
2023-02-11T08:16:25.024Z,60.19
2023-02-11T08:18:54.448Z,60.59
2023-02-11T08:21:24.189Z,60.50
2023-02-11T08:23:52.873Z,60.42
2023-02-11T08:26:23.753Z,60.46
2023-02-11T08:28:53.953Z,60.62
2023-02-11T08:31:25.026Z,60.67
2023-02-11T08:33:54.966Z,60.52
2023-02-11T08:36:26.470Z,60.83
2023-02-11T08:39:08.596Z,61.13
2023-02-11T08:41:46.105Z,61.05
2023-02-11T08:44:15.446Z,61.16
2023-02-11T08:46:43.982Z,61.52
2023-02-11T08:49:13.180Z,61.41
2023-02-11T08:51:43.574Z,61.27
2023-02-11T08:54:12.119Z,61.69
2023-02-11T08:56:41.252Z,61.93
2023-02-11T08:59:11.059Z,61.69
2023-02-11T09:01:39.620Z,61.89
2023-02-11T09:04:08.234Z,61.68
2023-02-11T09:06:36.706Z,61.95
2023-02-11T09:09:07.392Z,62.09
2023-02-11T09:11:37.497Z,62.08
2023-02-11T09:14:05.999Z,62.05
2023-02-11T09:16:36.149Z,62.30
2023-02-11T09:19:06.736Z,62.43
2023-02-11T09:21:35.850Z,62.31
2023-02-11T09:24:07.804Z,62.68
2023-02-11T09:26:38.403Z,62.48
2023-02-11T09:29:08.171Z,62.87
2023-02-11T09:31:37.462Z,62.30
2023-02-11T09:34:08.087Z,62.65
2023-02-11T09:36:38.822Z,62.43
2023-02-11T09:39:15.121Z,62.34
2023-02-11T09:42:04.920Z,62.34
2023-02-11T09:44:36.424Z,62.45
2023-02-11T09:47:08.103Z,62.12
2023-02-11T09:49:42.559Z,62.09
2023-02-11T09:52:23.367Z,62.10
2023-02-11T09:54:57.065Z,61.85
2023-02-11T09:57:29.301Z,62.04
2023-02-11T09:59:58.573Z,62.21
2023-02-11T10:10:26.527Z,61.83
2023-02-11T10:13:07.935Z,61.85
2023-02-11T10:15:46.527Z,61.64
2023-02-11T10:18:52.948Z,61.59
2023-02-11T10:21:30.493Z,61.63
2023-02-11T10:24:04.317Z,61.56
2023-02-11T10:26:37.981Z,61.32
2023-02-11T10:29:13.837Z,60.96
2023-02-11T10:31:46.984Z,61.51
2023-02-11T10:34:17.082Z,61.26
2023-02-11T10:36:46.674Z,60.95
2023-02-11T10:39:18.079Z,60.94
2023-02-11T10:41:52.259Z,60.94
2023-02-11T10:44:32.476Z,60.17
2023-02-11T10:47:04.418Z,60.46
2023-02-11T10:49:38.718Z,60.78
2023-02-11T10:52:31.855Z,60.56
2023-02-11T10:55:03.238Z,60.87
2023-02-11T10:57:37.995Z,60.61
2023-02-11T11:00:22.473Z,60.23
2023-02-11T11:02:56.995Z,59.89
2023-02-11T11:05:31.869Z,60.49
2023-02-11T11:08:01.972Z,60.30
2023-02-11T11:10:37.148Z,60.02
2023-02-11T11:13:07.634Z,60.32
2023-02-11T11:15:37.535Z,60.08
2023-02-11T11:18:22.553Z,59.39
2023-02-11T11:21:03.596Z,59.01
2023-02-11T11:23:33.508Z,59.85
2023-02-11T11:26:07.179Z,60.15
2023-02-11T11:28:40.955Z,59.80
2023-02-11T11:31:18.660Z,60.25
2023-02-11T11:33:49.613Z,60.46
2023-02-11T11:36:22.713Z,60.46
2023-02-11T11:38:56.439Z,60.07
2023-02-11T11:41:27.394Z,59.39
2023-02-11T11:44:01.090Z,59.46
2023-02-11T11:46:32.075Z,59.58
2023-02-11T11:49:09.398Z,59.25
2023-02-11T11:51:41.406Z,59.37
2023-02-11T11:54:15.052Z,59.18
2023-02-11T11:56:52.342Z,58.97
2023-02-11T11:59:23.630Z,58.92
2023-02-11T12:02:15.493Z,58.65
2023-02-11T12:05:01.836Z,58.93
2023-02-11T12:07:50.735Z,58.66
2023-02-11T12:10:33.006Z,58.24
2023-02-11T12:13:17.290Z,58.99
2023-02-11T12:15:56.923Z,58.27
2023-02-11T12:18:45.503Z,57.62
2023-02-11T12:21:29.735Z,58.35
2023-02-11T12:24:17.505Z,58.50
2023-02-11T12:26:51.422Z,58.76
2023-02-11T12:29:33.641Z,58.81
2023-02-11T12:32:27.585Z,58.80
2023-02-11T12:35:23.073Z,58.09
2023-02-11T12:38:09.104Z,58.29
2023-02-11T12:40:46.557Z,57.97
2023-02-11T12:43:24.063Z,58.15
2023-02-11T12:46:39.981Z,58.07
2023-02-11T12:49:38.905Z,58.25
2023-02-11T12:52:24.659Z,58.00
2023-02-11T12:55:00.235Z,58.51
2023-02-11T12:57:32.539Z,58.68
2023-02-11T13:00:07.769Z,58.46
2023-02-11T13:02:45.720Z,58.89
2023-02-11T13:05:24.238Z,59.05
2023-02-11T13:07:57.317Z,59.14
2023-02-11T13:10:31.354Z,59.13
2023-02-11T13:13:20.180Z,58.40
2023-02-11T13:15:52.023Z,58.90
2023-02-11T13:18:41.528Z,58.68
2023-02-11T13:21:30.782Z,58.82
2023-02-11T13:24:11.183Z,58.81
2023-02-11T13:26:49.052Z,58.85
2023-02-11T13:29:28.952Z,59.40
2023-02-11T13:31:58.588Z,58.92
2023-02-11T13:34:48.334Z,58.80
2023-02-11T13:37:24.299Z,59.31
2023-02-11T13:40:03.199Z,59.42
2023-02-11T13:42:33.903Z,59.35
2023-02-11T13:45:02.735Z,58.59
2023-02-11T13:47:34.600Z,59.34
2023-02-11T13:50:07.092Z,59.26
2023-02-11T13:52:40.329Z,58.76
2023-02-11T13:55:21.696Z,58.87
2023-02-11T13:58:19.031Z,59.12
2023-02-11T14:00:50.484Z,59.20
2023-02-11T14:03:57.471Z,59.18
2023-02-11T14:06:46.254Z,59.58
2023-02-11T14:09:39.252Z,59.12
2023-02-11T14:12:37.829Z,58.82
2023-02-11T14:15:26.713Z,58.89
2023-02-11T14:17:55.211Z,59.63
2023-02-11T14:20:46.661Z,59.69
2023-02-11T14:23:27.668Z,59.19
2023-02-11T14:26:24.008Z,59.88
2023-02-11T14:28:57.785Z,60.16
2023-02-11T14:31:28.164Z,61.71
2023-02-11T14:34:16.888Z,60.44
2023-02-11T14:37:18.776Z,60.26
2023-02-11T14:39:58.474Z,60.28
2023-02-11T14:42:31.179Z,59.85
2023-02-11T14:45:04.592Z,60.53
2023-02-11T14:47:42.012Z,60.29
2023-02-11T14:50:19.288Z,60.68
2023-02-11T14:52:48.531Z,60.39
2023-02-11T14:55:27.157Z,60.33
2023-02-11T14:58:09.508Z,60.54
2023-02-11T15:00:37.940Z,60.14
2023-02-11T15:03:06.284Z,60.72
2023-02-11T15:05:35.151Z,60.31
2023-02-11T15:08:07.926Z,60.37
2023-02-11T15:10:43.740Z,60.41
2023-02-11T15:13:21.669Z,60.22
2023-02-11T15:15:54.773Z,60.41
2023-02-11T15:18:26.876Z,60.00
2023-02-11T15:20:55.404Z,60.76
2023-02-11T15:23:27.579Z,60.89
2023-02-11T15:25:56.674Z,60.73
2023-02-11T15:28:30.150Z,61.15
2023-02-11T15:31:00.551Z,61.56
2023-02-11T15:33:30.537Z,61.32
2023-02-11T15:35:59.885Z,61.30
2023-02-11T15:38:29.954Z,61.40
2023-02-11T15:41:01.024Z,61.43
2023-02-11T15:43:44.623Z,60.84
2023-02-11T15:46:15.864Z,61.70
2023-02-11T15:48:48.763Z,61.91
2023-02-11T15:51:22.176Z,61.73
2023-02-11T15:53:56.952Z,61.82
2023-02-11T15:56:29.898Z,61.81
2023-02-11T15:59:02.032Z,61.66
2023-02-11T16:01:34.047Z,61.67
2023-02-11T16:04:04.100Z,61.90
2023-02-11T16:06:38.482Z,61.83
2023-02-11T16:09:23.087Z,61.99
2023-02-11T16:12:03.728Z,62.41
2023-02-11T16:14:37.562Z,62.37
2023-02-11T16:17:09.640Z,62.28
2023-02-11T16:19:44.279Z,62.27
2023-02-11T16:22:17.317Z,62.67
2023-02-11T16:24:49.756Z,62.17
2023-02-11T16:27:23.477Z,62.29
2023-02-11T16:29:53.427Z,62.97
2023-02-11T16:32:23.618Z,62.64
2023-02-11T16:34:53.017Z,62.58
2023-02-11T16:37:21.405Z,62.75
2023-02-11T16:39:49.686Z,63.09
2023-02-11T16:42:18.164Z,62.80
2023-02-11T16:44:46.448Z,62.97
2023-02-11T16:47:22.106Z,62.84
2023-02-11T16:49:50.900Z,63.09
2023-02-11T16:52:21.372Z,63.05
2023-02-11T16:54:49.924Z,63.26
2023-02-11T16:57:21.115Z,63.10
2023-02-11T16:59:50.171Z,63.39
2023-02-11T17:02:24.138Z,63.33
2023-02-11T17:04:53.684Z,63.44
2023-02-11T17:07:22.569Z,63.28
2023-02-11T17:09:52.097Z,63.01
2023-02-11T17:12:20.560Z,63.14
2023-02-11T17:14:49.021Z,63.23
2023-02-11T17:17:17.709Z,62.95
2023-02-11T17:19:49.894Z,63.02
2023-02-11T17:22:19.118Z,63.07
2023-02-11T17:24:47.371Z,63.21
2023-02-11T17:27:17.466Z,63.25
2023-02-11T17:29:46.765Z,63.10
2023-02-11T17:32:15.901Z,62.48
2023-02-11T17:34:46.583Z,62.80
2023-02-11T17:37:17.160Z,62.81
2023-02-11T17:39:45.976Z,62.76
2023-02-11T17:42:15.125Z,62.51
2023-02-11T17:44:46.206Z,62.93
2023-02-11T17:47:16.113Z,62.88
2023-02-11T17:49:45.189Z,62.67
2023-02-11T17:52:16.863Z,62.56
2023-02-11T17:54:47.787Z,63.06
2023-02-11T17:57:16.522Z,62.57
2023-02-11T17:59:45.021Z,62.67
2023-02-11T18:02:14.182Z,62.60
2023-02-11T18:04:44.654Z,62.51
2023-02-11T18:07:14.395Z,62.85
2023-02-11T18:09:46.095Z,62.49
2023-02-11T18:12:15.150Z,62.12
2023-02-11T18:14:46.419Z,62.27
2023-02-11T18:17:15.688Z,62.44
2023-02-11T18:19:44.579Z,62.45
2023-02-11T18:22:14.504Z,62.56
2023-02-11T18:24:46.224Z,62.50
2023-02-11T18:27:15.243Z,62.64
2023-02-11T18:29:43.524Z,62.96
2023-02-11T18:32:12.331Z,63.08
2023-02-11T18:34:41.840Z,62.75
2023-02-11T18:37:11.702Z,62.94
2023-02-11T18:39:39.951Z,62.75
2023-02-11T18:42:09.948Z,63.05
2023-02-11T18:44:38.630Z,62.73
2023-02-11T18:47:06.979Z,62.66
2023-02-11T18:49:36.305Z,62.79
2023-02-11T18:52:04.875Z,62.90
2023-02-11T18:54:33.126Z,63.44
2023-02-11T18:57:01.672Z,63.29
2023-02-11T18:59:31.943Z,63.38
2023-02-11T19:02:00.329Z,63.27
2023-02-11T19:04:28.795Z,63.18
2023-02-11T19:06:57.310Z,63.74
2023-02-11T19:09:25.921Z,63.96
2023-02-11T19:11:55.734Z,63.91
2023-02-11T19:14:25.742Z,63.79
2023-02-11T19:16:57.478Z,63.81
2023-02-11T19:19:28.156Z,64.20
2023-02-11T19:21:57.538Z,64.31
2023-02-11T19:24:27.260Z,63.79
2023-02-11T19:26:58.247Z,63.94
2023-02-11T19:29:29.088Z,64.01
2023-02-11T19:31:59.465Z,63.95
2023-02-11T19:34:28.540Z,63.49
2023-02-11T19:36:59.721Z,63.86
2023-02-11T19:39:28.688Z,64.14
2023-02-11T19:41:57.658Z,63.85
2023-02-11T19:44:26.105Z,64.19
2023-02-11T19:46:54.923Z,64.46
2023-02-11T19:49:26.391Z,64.35
2023-02-11T19:51:57.508Z,64.00
2023-02-11T19:54:27.510Z,64.37
2023-02-11T19:56:56.100Z,64.64
2023-02-11T19:59:24.608Z,64.92
2023-02-11T20:01:54.490Z,64.86
2023-02-11T20:04:27.030Z,64.64
2023-02-11T20:06:56.266Z,64.62
2023-02-11T20:09:26.722Z,64.49
2023-02-11T20:11:59.374Z,64.85
2023-02-11T20:14:28.211Z,65.17
2023-02-11T20:16:57.128Z,65.45
2023-02-11T20:19:30.458Z,65.46
2023-02-11T20:21:59.216Z,65.77
2023-02-11T20:24:28.308Z,65.66
2023-02-11T20:26:57.277Z,65.88
2023-02-11T20:29:27.777Z,65.84
2023-02-11T20:31:56.592Z,66.08
2023-02-11T20:34:26.500Z,66.69
2023-02-11T20:36:56.147Z,66.62
2023-02-11T20:39:25.845Z,66.84
2023-02-11T20:41:55.210Z,66.68
2023-02-11T20:44:24.244Z,67.07
2023-02-11T20:46:54.643Z,67.35
2023-02-11T20:49:28.654Z,67.46
2023-02-11T20:51:58.616Z,67.08
2023-02-11T20:54:28.203Z,67.43
2023-02-11T20:56:58.936Z,67.73
2023-02-11T20:59:27.735Z,67.88
2023-02-11T21:01:58.402Z,67.89
2023-02-11T21:04:30.246Z,67.86
2023-02-11T21:07:01.275Z,67.65
2023-02-11T21:09:33.997Z,67.95
2023-02-11T21:12:04.478Z,67.75
2023-02-11T21:14:34.696Z,68.06
2023-02-11T21:17:03.998Z,68.37
2023-02-11T21:19:33.917Z,68.38
2023-02-11T21:22:03.402Z,68.78
2023-02-11T21:24:32.557Z,68.72
2023-02-11T21:27:01.132Z,68.75
2023-02-11T21:29:30.268Z,68.28
2023-02-11T21:31:59.303Z,68.87
2023-02-11T21:34:27.734Z,68.80
2023-02-11T21:36:59.435Z,69.02
2023-02-11T21:39:29.147Z,69.39
2023-02-11T21:41:58.640Z,69.52
2023-02-11T21:44:27.956Z,69.53
2023-02-11T21:46:56.799Z,69.58
2023-02-11T21:49:26.480Z,69.46
2023-02-11T21:51:57.168Z,69.59
2023-02-11T21:54:29.288Z,69.30
2023-02-11T21:56:57.654Z,69.08
2023-02-11T21:59:26.921Z,69.37
2023-02-11T22:01:55.228Z,69.44
2023-02-11T22:04:24.656Z,68.86
2023-02-11T22:06:54.351Z,69.10
2023-02-11T22:09:25.777Z,69.15
2023-02-11T22:11:57.131Z,68.98
2023-02-11T22:14:26.689Z,69.02
2023-02-11T22:16:56.749Z,69.05
2023-02-11T22:19:27.542Z,68.77
2023-02-11T22:21:57.356Z,69.00
2023-02-11T22:24:30.162Z,68.87
2023-02-11T22:27:00.104Z,68.93
2023-02-11T22:29:29.103Z,69.06
2023-02-11T22:31:57.626Z,68.94
2023-02-11T22:34:26.000Z,69.06
2023-02-11T22:36:54.376Z,69.06
2023-02-11T22:39:22.868Z,68.85
2023-02-11T22:41:54.644Z,69.35
2023-02-11T22:44:22.936Z,69.16
2023-02-11T22:46:51.581Z,68.92
2023-02-11T22:49:21.451Z,68.77
2023-02-11T22:51:50.361Z,68.89
2023-02-11T22:54:20.170Z,68.96
2023-02-11T22:56:53.413Z,69.61
2023-02-11T22:59:22.633Z,69.25
2023-02-11T23:01:51.217Z,68.94
2023-02-11T23:04:20.987Z,69.02
2023-02-11T23:06:50.133Z,69.07
2023-02-11T23:09:18.547Z,69.00
2023-02-11T23:11:48.661Z,68.76
2023-02-11T23:14:18.325Z,68.38
2023-02-11T23:16:46.802Z,68.55
2023-02-11T23:19:15.081Z,68.15
2023-02-11T23:21:43.612Z,68.73
2023-02-11T23:24:16.585Z,68.58
2023-02-11T23:26:45.738Z,68.73
2023-02-11T23:29:14.587Z,68.20
2023-02-11T23:31:46.613Z,68.25
2023-02-11T23:34:17.427Z,68.47
2023-02-11T23:36:45.865Z,68.45
2023-02-11T23:39:16.128Z,68.70
2023-02-11T23:41:44.644Z,68.83
2023-02-11T23:44:13.176Z,68.60
2023-02-11T23:46:41.470Z,68.88
2023-02-11T23:49:11.233Z,68.88
2023-02-11T23:51:39.533Z,68.98
2023-02-11T23:54:07.822Z,68.91
2023-02-11T23:56:37.106Z,68.62
2023-02-11T23:59:05.462Z,69.00
